Nearby METARS Reports

 

LFML - Marseille/Marign, France
Distance from station: O 47km
Mise à jour: 22/11/2017 04:00
clair
clair
 Wind from calm
Vent: calme
Température: 5°C
Point de rosée: 2°C
Humidité: 81%
Baromètre: 1019 hPa
Résumé: clair
Visibility: greater than 10 km
2017/11/22 03:00 LFML 220300Z AUTO 00000KT CAVOK 05/02 Q1019 TEMPO 09010KT
LFMC - Le Luc/Le Cannet, France
Distance from station: ESE 48km
Mise à jour: 22/11/2017 04:00

 Wind from calm
Vent: calme
Visibility: 1 km
2017/11/22 03:00 LFMC 220300Z AUTO 00000KT 0800 0750 FG OVC003 01/01 Q1020
LFTH - Hyeres/Le Palyve, France
Distance from station: SSE 53km
Mise à jour: 22/11/2017 04:00
clair
clair
 Wind from N
Vent: N 6 km/h
Température: 7°C
Point de rosée: 5°C
Humidité: 87%
Baromètre: 1019 hPa
Résumé: clair
Visibility: greater than 10 km
2017/11/22 03:00 LFTH 220300Z AUTO 36003KT CAVOK 07/05 Q1019 NOSIG